createdAt,value
2022-08-20T00:01:01.689Z,55.88
2022-08-20T00:06:07.154Z,54.55
2022-08-20T00:11:12.427Z,54.53
2022-08-20T00:16:17.248Z,54.78
2022-08-20T00:21:21.180Z,51.25
2022-08-20T00:26:26.045Z,49.85
2022-08-20T00:31:28.473Z,54.10
2022-08-20T00:36:33.015Z,51.78
2022-08-20T00:41:35.356Z,43.42
2022-08-20T00:46:38.477Z,47.80
2022-08-20T00:51:42.436Z,35.80
2022-08-20T00:56:49.418Z,42.10
2022-08-20T01:01:55.410Z,93.90
2022-08-20T01:06:58.554Z,154.80
2022-08-20T01:12:01.567Z,36.70
2022-08-20T01:17:08.106Z,51.05
2022-08-20T01:22:11.965Z,42.97
2022-08-20T01:27:14.842Z,41.40
2022-08-20T01:32:16.999Z,57.65
2022-08-20T01:37:19.144Z,45.43
2022-08-20T01:42:30.410Z,50.73
2022-08-20T01:47:36.402Z,37.80
2022-08-20T01:53:30.021Z,43.78
2022-08-20T01:58:35.291Z,43.00
2022-08-20T02:03:40.749Z,51.10
2022-08-20T02:08:46.277Z,48.28
2022-08-20T02:13:49.267Z,36.23
2022-08-20T02:28:58.035Z,36.75
2022-08-20T02:34:22.354Z,37.45
2022-08-20T02:39:25.163Z,37.15
2022-08-20T02:44:27.303Z,42.57
2022-08-20T02:49:29.620Z,47.30
2022-08-20T02:54:31.746Z,38.33
2022-08-20T02:59:33.897Z,42.97
2022-08-20T03:04:36.069Z,34.27
2022-08-20T03:09:38.874Z,36.72
2022-08-20T03:14:41.205Z,38.25
2022-08-20T03:19:43.331Z,41.20
2022-08-20T03:24:45.500Z,49.13
2022-08-20T03:29:47.623Z,39.63
2022-08-20T03:34:49.787Z,56.07
2022-08-20T03:39:52.007Z,43.53
2022-08-20T03:44:58.662Z,48.50
2022-08-20T03:50:04.690Z,41.03
2022-08-20T03:55:08.969Z,34.72
2022-08-20T04:00:12.354Z,34.72
2022-08-20T04:05:17.305Z,56.05
2022-08-20T04:10:19.992Z,46.30
2022-08-20T04:15:22.177Z,49.28
2022-08-20T04:20:25.408Z,41.45
2022-08-20T04:30:32.982Z,32.88
2022-08-20T04:40:37.129Z,39.25
2022-08-20T04:45:39.477Z,39.13
2022-08-20T04:50:44.128Z,37.03
2022-08-20T04:55:47.141Z,37.35
2022-08-20T05:00:52.768Z,41.47
2022-08-20T05:05:55.028Z,34.80
2022-08-20T05:11:06.597Z,34.67
2022-08-20T05:16:20.997Z,31.52
2022-08-20T05:26:25.077Z,39.55
2022-08-20T05:31:32.693Z,38.60
2022-08-20T05:36:36.330Z,45.83
2022-08-20T05:41:39.369Z,31.70
2022-08-20T05:51:44.649Z,40.15
2022-08-20T05:56:46.864Z,40.37
2022-08-20T06:01:49.010Z,31.87
2022-08-20T06:06:53.218Z,29.47
2022-08-20T06:11:55.433Z,34.22
2022-08-20T06:17:10.801Z,30.17
2022-08-20T06:22:21.329Z,27.80
2022-08-20T06:27:27.561Z,19.65
2022-08-20T06:32:32.679Z,18.70
2022-08-20T06:37:37.040Z,20.55
2022-08-20T06:42:39.631Z,17.50
2022-08-20T06:47:44.263Z,20.58
2022-08-20T06:52:52.781Z,22.45
2022-08-20T06:58:00.207Z,15.05
2022-08-20T07:03:03.746Z,9.20
2022-08-20T07:08:05.903Z,10.13
2022-08-20T07:13:08.817Z,12.75
2022-08-20T07:18:12.988Z,7.22
2022-08-20T07:23:15.454Z,13.70
2022-08-20T07:28:22.927Z,4.80
2022-08-20T07:33:28.315Z,4.35
2022-08-20T07:38:31.875Z,7.88
2022-08-20T07:43:34.665Z,5.68
2022-08-20T07:48:40.068Z,7.10
2022-08-20T07:53:42.458Z,9.07
2022-08-20T07:58:50.502Z,8.82
2022-08-20T08:03:53.206Z,3.78
2022-08-20T08:13:59.900Z,8.65
2022-08-20T08:19:06.219Z,6.10
2022-08-20T08:24:08.391Z,6.10
2022-08-20T08:29:10.874Z,7.32
2022-08-20T08:39:15.070Z,5.15
2022-08-20T08:44:29.298Z,3.67
2022-08-20T08:49:38.079Z,8.02
2022-08-20T08:54:47.227Z,7.60
2022-08-20T09:00:04.712Z,4.60
2022-08-20T09:05:16.304Z,4.68
2022-08-20T09:10:18.665Z,7.40
2022-08-20T09:15:25.480Z,4.85
2022-08-20T09:25:29.580Z,7.07
2022-08-20T09:30:31.805Z,3.47
2022-08-20T09:35:33.992Z,4.85
2022-08-20T09:40:36.199Z,3.75
2022-08-20T09:45:38.421Z,3.92
2022-08-20T09:50:45.860Z,5.00
2022-08-20T09:55:53.340Z,5.07
2022-08-20T10:00:55.550Z,4.80
2022-08-20T10:05:57.710Z,5.07
2022-08-20T10:10:59.939Z,10.32
2022-08-20T10:16:02.188Z,3.53
2022-08-20T10:21:10.068Z,3.40
2022-08-20T10:26:12.959Z,3.85
2022-08-20T10:31:15.234Z,5.05
2022-08-20T10:36:18.061Z,2.58
2022-08-20T10:41:20.358Z,3.63
2022-08-20T10:46:22.724Z,5.78
2022-08-20T10:51:32.197Z,3.83
2022-08-20T10:56:35.220Z,7.13
2022-08-20T11:01:37.538Z,4.90
2022-08-20T11:06:39.756Z,3.22
2022-08-20T11:11:41.917Z,3.17
2022-08-20T11:16:44.096Z,3.08
2022-08-20T11:21:46.306Z,4.85
2022-08-20T11:26:49.789Z,3.83
2022-08-20T11:31:52.003Z,2.90
2022-08-20T11:36:54.254Z,3.55
2022-08-20T11:41:56.478Z,3.25
2022-08-20T11:47:06.360Z,4.20
2022-08-20T11:52:08.506Z,4.53
2022-08-20T11:57:11.707Z,3.67
2022-08-20T12:02:13.905Z,5.18
2022-08-20T12:07:21.775Z,3.78
2022-08-20T12:12:24.069Z,3.30
2022-08-20T12:17:28.920Z,4.32
2022-08-20T12:22:31.154Z,3.95
2022-08-20T12:27:35.200Z,5.50
2022-08-20T12:32:37.424Z,3.15
2022-08-20T12:37:40.291Z,4.60
2022-08-20T12:42:42.462Z,2.03
2022-08-20T12:47:47.916Z,3.28
2022-08-20T12:52:50.251Z,5.53
2022-08-20T12:57:55.599Z,4.80
2022-08-20T13:02:59.725Z,4.07
2022-08-20T13:08:02.664Z,4.05
2022-08-20T13:13:04.821Z,3.42
2022-08-20T13:23:09.369Z,4.97
2022-08-20T13:28:11.553Z,4.72
2022-08-20T13:33:13.763Z,5.88
2022-08-20T13:38:15.925Z,3.22
2022-08-20T13:43:18.107Z,4.25
2022-08-20T13:48:20.313Z,5.65
2022-08-20T13:53:22.481Z,2.75
2022-08-20T13:58:25.197Z,4.60
2022-08-20T14:03:27.351Z,4.00
2022-08-20T14:08:30.299Z,5.15
2022-08-20T14:13:32.455Z,3.30
2022-08-20T14:18:34.639Z,4.78
2022-08-20T14:23:36.951Z,4.53
2022-08-20T14:28:39.223Z,9.65
2022-08-20T14:33:44.647Z,3.97
2022-08-20T14:38:47.053Z,5.95
2022-08-20T14:43:49.207Z,4.20
2022-08-20T14:48:51.832Z,3.25
2022-08-20T14:53:55.637Z,4.63
2022-08-20T14:58:57.804Z,5.72
2022-08-20T15:03:59.971Z,4.35
2022-08-20T15:09:02.475Z,5.45
2022-08-20T15:14:08.429Z,4.05
2022-08-20T15:19:11.001Z,3.92
2022-08-20T15:24:19.411Z,4.60
2022-08-20T15:29:24.682Z,3.60
2022-08-20T15:34:26.846Z,7.25
2022-08-20T15:39:29.009Z,10.25
2022-08-20T15:49:33.127Z,5.03
2022-08-20T15:59:43.626Z,4.90
2022-08-20T16:04:51.890Z,6.95
2022-08-20T16:10:20.532Z,3.15
2022-08-20T16:15:25.737Z,3.55
2022-08-20T16:20:38.629Z,4.93
2022-08-20T16:26:25.451Z,4.40
2022-08-20T16:32:05.348Z,2.60
2022-08-20T16:37:33.883Z,5.47
2022-08-20T16:42:42.151Z,3.88
2022-08-20T16:47:46.430Z,3.47
2022-08-20T16:52:49.225Z,3.55
2022-08-20T16:57:51.918Z,3.67
2022-08-20T17:02:54.006Z,3.30
2022-08-20T17:08:05.440Z,8.98
2022-08-20T17:13:13.292Z,6.15
2022-08-20T17:18:25.336Z,4.88
2022-08-20T17:23:27.939Z,6.57
2022-08-20T17:28:35.149Z,4.18
2022-08-20T17:33:39.632Z,3.97
2022-08-20T17:38:53.813Z,3.20
2022-08-20T17:44:20.332Z,6.63
2022-08-20T17:49:40.075Z,4.22
2022-08-20T17:54:45.309Z,4.45
2022-08-20T17:59:59.839Z,5.72
2022-08-20T18:05:14.297Z,3.03
2022-08-20T18:10:23.425Z,5.50
2022-08-20T18:15:29.658Z,5.40
2022-08-20T18:20:46.884Z,6.97
2022-08-20T18:25:54.552Z,4.00
2022-08-20T18:31:02.524Z,5.90
2022-08-20T18:36:12.987Z,5.97
2022-08-20T18:41:46.376Z,6.88
2022-08-20T18:46:55.140Z,4.15
2022-08-20T18:52:07.800Z,3.75
2022-08-20T18:57:41.316Z,5.70
2022-08-20T19:02:56.172Z,5.15
2022-08-20T19:18:32.941Z,5.80
2022-08-20T19:23:39.539Z,5.57
2022-08-20T19:28:45.089Z,4.78
2022-08-20T19:33:48.085Z,4.72
2022-08-20T19:39:01.479Z,5.13
2022-08-20T19:44:03.735Z,6.93
2022-08-20T19:49:24.074Z,8.67
2022-08-20T19:54:28.272Z,3.83
2022-08-20T19:59:30.512Z,9.35
2022-08-20T20:04:54.996Z,7.20
2022-08-20T20:09:59.974Z,7.57
2022-08-20T20:15:05.806Z,6.73
2022-08-20T20:20:23.451Z,7.82
2022-08-20T20:25:28.546Z,8.13
2022-08-20T20:30:33.492Z,9.80
2022-08-20T20:35:36.130Z,9.13
2022-08-20T20:40:49.610Z,7.88
2022-08-20T20:50:59.515Z,10.43
2022-08-20T20:56:02.179Z,7.90
2022-08-20T21:01:04.725Z,7.35
2022-08-20T21:06:07.309Z,6.40
2022-08-20T21:11:11.692Z,6.78
2022-08-20T21:16:13.875Z,10.80
2022-08-20T21:21:16.025Z,10.93
2022-08-20T21:26:18.457Z,10.23
2022-08-20T21:31:20.676Z,9.65
2022-08-20T21:36:22.856Z,11.17
2022-08-20T21:41:30.240Z,10.75
2022-08-20T21:46:32.581Z,11.80
2022-08-20T21:51:34.760Z,11.80
2022-08-20T21:56:37.959Z,13.45
2022-08-20T22:06:42.431Z,11.38
2022-08-20T22:11:44.750Z,11.77
2022-08-20T22:16:46.925Z,13.07
2022-08-20T22:21:49.447Z,11.35
2022-08-20T22:26:51.650Z,17.35
2022-08-20T22:31:54.218Z,15.50
2022-08-20T22:36:58.323Z,19.02
2022-08-20T22:42:00.515Z,22.02
2022-08-20T22:47:07.813Z,22.38
2022-08-20T22:52:11.783Z,19.13
2022-08-20T22:57:14.528Z,26.55
2022-08-20T23:02:18.359Z,18.17
2022-08-20T23:07:20.735Z,22.30
2022-08-20T23:12:23.027Z,30.27
2022-08-20T23:17:25.700Z,37.43
2022-08-20T23:22:27.964Z,26.75
2022-08-20T23:27:30.531Z,31.80
2022-08-20T23:32:32.735Z,28.73
2022-08-20T23:37:40.234Z,29.77
2022-08-20T23:42:42.549Z,43.60
2022-08-20T23:47:45.178Z,37.83
2022-08-20T23:52:47.935Z,34.92
2022-08-20T23:57:51.260Z,31.73
